Time;durP1;ratioP1;P1;durP2;ratioP2;P2;SDS_P1;SDS_P2;PMS_P1;PMS_P2;Temp;Humidity;BMP_temperature;BMP_pressure;BME280_temperature;BME280_humidity;BME280_pressure;Samples;Min_cycle;Max_cycle;Signal;HPM_P1;HPM_P2
2021/03/27 00:00:41;;;;;;;3.58;1.10;;;6.90;94.60;;;;;;5024938;28;20136;-81
2021/03/27 00:03:12;;;;;;;2.53;1.02;;;6.80;94.60;;;;;;5031539;28;20050;-81
2021/03/27 00:06:02;;;;;;;2.88;0.90;;;6.60;94.70;;;;;;5027782;28;20081;-81
2021/03/27 00:08:36;;;;;;;2.95;1.00;;;6.50;95.00;;;;;;5031682;28;20045;-82
2021/03/27 00:11:10;;;;;;;3.85;1.25;;;6.40;95.40;;;;;;5027730;28;20044;-81
2021/03/27 00:14:00;;;;;;;4.60;1.00;;;6.30;95.50;;;;;;5031441;28;21477;-83
2021/03/27 00:16:55;;;;;;;2.08;1.25;;;6.20;95.50;;;;;;5029129;28;20042;-84
2021/03/27 00:19:36;;;;;;;;;;;6.20;95.90;;;;;;5027732;28;20037;-84
2021/03/27 00:22:12;;;;;;;4.10;0.93;;;6.10;96.70;;;;;;5031188;28;20014;-84
2021/03/27 00:25:08;;;;;;;4.38;1.10;;;6.10;96.20;;;;;;5026761;28;20037;-83
2021/03/27 00:27:46;;;;;;;5.20;1.20;;;6.10;96.40;;;;;;5026797;28;20502;-82
2021/03/27 00:30:17;;;;;;;5.10;1.10;;;6.00;96.30;;;;;;5027525;28;20045;-81
2021/03/27 00:32:50;;;;;;;4.65;1.30;;;6.00;96.40;;;;;;5034524;28;20092;-81
2021/03/27 00:35:24;;;;;;;3.85;1.60;;;6.10;96.50;;;;;;5030273;28;20397;-80
2021/03/27 00:37:50;;;;;;;5.35;2.20;;;6.00;96.50;;;;;;5034386;28;20140;-80
2021/03/27 00:40:21;;;;;;;3.92;1.15;;;6.00;96.70;;;;;;5030131;28;20126;-80
2021/03/27 00:43:02;;;;;;;4.82;1.35;;;6.00;96.70;;;;;;5026513;28;20402;-80
2021/03/27 00:45:33;;;;;;;3.88;1.33;;;6.00;96.80;;;;;;5026620;28;20053;-80
2021/03/27 00:48:07;;;;;;;3.95;1.63;;;6.00;96.70;;;;;;5036251;28;20068;-80
2021/03/27 00:50:44;;;;;;;5.15;1.75;;;6.00;96.80;;;;;;5022160;28;20505;-80
2021/03/27 00:53:38;;;;;;;5.18;2.05;;;6.00;96.80;;;;;;5029874;28;20046;-80
2021/03/27 00:56:30;;;;;;;6.53;2.88;;;6.10;97.00;;;;;;5031013;28;20489;-80
2021/03/27 00:59:06;;;;;;;4.63;2.67;;;6.00;97.10;;;;;;5028710;28;20072;-80
2021/03/27 01:01:44;;;;;;;6.75;3.10;;;6.10;97.10;;;;;;5025640;28;20045;-80
2021/03/27 01:04:14;;;;;;;6.20;3.55;;;6.10;97.10;;;;;;5032626;28;20040;-80
2021/03/27 01:06:56;;;;;;;7.82;3.40;;;6.20;97.10;;;;;;5030557;28;20052;-80
2021/03/27 01:09:53;;;;;;;6.70;3.92;;;6.10;97.20;;;;;;5032930;28;20034;-80
2021/03/27 01:12:34;;;;;;;6.55;3.67;;;6.10;97.30;;;;;;5026311;28;20048;-80
2021/03/27 01:15:15;;;;;;;6.03;4.43;;;6.20;97.30;;;;;;5034223;28;20060;-80
2021/03/27 01:17:47;;;;;;;5.88;4.00;;;6.20;97.30;;;;;;5024745;28;20061;-80
2021/03/27 01:20:24;;;;;;;6.93;4.30;;;6.20;97.40;;;;;;5045101;28;20465;-80
2021/03/27 01:22:52;;;;;;;8.32;4.15;;;6.20;97.30;;;;;;5037158;28;20049;-80
2021/03/27 01:25:25;;;;;;;5.80;4.28;;;6.20;97.30;;;;;;5033603;28;20140;-80
2021/03/27 01:27:57;;;;;;;13.15;4.75;;;6.20;97.30;;;;;;5026692;28;20033;-80
2021/03/27 01:30:43;;;;;;;7.57;5.05;;;6.20;97.30;;;;;;5033626;28;20042;-80
2021/03/27 01:33:19;;;;;;;8.95;5.25;;;6.20;97.30;;;;;;5047363;28;20061;-80
2021/03/27 01:35:51;;;;;;;7.72;4.70;;;6.20;97.40;;;;;;5035955;28;20045;-80
2021/03/27 01:38:24;;;;;;;6.53;5.30;;;6.20;97.80;;;;;;5032364;28;20052;-80
2021/03/27 01:41:35;;;;;;;8.68;4.57;;;6.20;97.50;;;;;;5035386;28;20037;-81
2021/03/27 01:44:25;;;;;;;7.00;5.18;;;6.20;97.50;;;;;;5002210;28;20042;-80
2021/03/27 01:47:03;;;;;;;9.15;4.65;;;6.20;97.60;;;;;;5037585;28;20071;-80
2021/03/27 01:50:06;;;;;;;6.63;4.70;;;6.20;97.50;;;;;;5025438;28;20397;-81
2021/03/27 01:52:51;;;;;;;8.43;4.70;;;6.20;97.60;;;;;;5048609;28;20037;-81
2021/03/27 01:56:22;;;;;;;7.45;4.53;;;6.20;97.60;;;;;;5029338;28;20133;-81
2021/03/27 01:59:08;;;;;;;5.63;3.80;;;6.20;97.70;;;;;;4947105;28;20746;-81
2021/03/27 02:01:40;;;;;;;6.90;4.38;;;6.10;97.70;;;;;;5045513;28;20034;-81
2021/03/27 02:04:26;;;;;;;9.40;4.75;;;6.10;97.80;;;;;;5027386;28;20046;-81
2021/03/27 02:07:03;;;;;;;6.85;5.10;;;6.10;97.80;;;;;;5034687;28;20125;-81
2021/03/27 02:09:39;;;;;;;7.95;3.92;;;6.10;97.90;;;;;;5024896;28;20064;-81
2021/03/27 02:12:28;;;;;;;6.93;3.60;;;6.20;97.90;;;;;;5031801;28;20055;-81
2021/03/27 02:15:12;;;;;;;4.97;3.30;;;6.20;97.90;;;;;;5041779;28;20037;-81
2021/03/27 02:17:49;;;;;;;4.63;3.13;;;6.10;97.90;;;;;;5033831;28;20045;-81
2021/03/27 02:20:47;;;;;;;5.57;3.22;;;6.00;97.80;;;;;;5024816;28;20034;-81
2021/03/27 02:23:36;;;;;;;11.50;3.83;;;6.10;97.70;;;;;;5032367;28;20042;-82
2021/03/27 02:26:01;;;;;;;5.45;3.65;;;6.10;97.70;;;;;;5027222;28;20482;-82
2021/03/27 02:28:45;;;;;;;5.63;2.90;;;6.10;97.70;;;;;;5024040;28;20124;-81
2021/03/27 02:31:16;;;;;;;8.30;4.15;;;6.00;97.70;;;;;;5022096;28;20053;-81
2021/03/27 02:33:45;;;;;;;5.38;3.50;;;6.00;97.70;;;;;;5035783;28;20806;-81
2021/03/27 02:36:29;;;;;;;6.35;3.30;;;6.00;97.70;;;;;;5028349;28;20046;-81
2021/03/27 02:39:17;;;;;;;7.43;4.77;;;6.00;97.70;;;;;;5022997;28;20071;-82
2021/03/27 02:42:07;;;;;;;8.90;5.22;;;6.00;97.70;;;;;;5024628;28;20049;-82
2021/03/27 02:45:11;;;;;;;6.97;5.03;;;6.00;97.80;;;;;;5032884;28;20048;-82
2021/03/27 02:47:53;;;;;;;8.80;6.10;;;6.00;97.80;;;;;;4977718;28;20061;-82
2021/03/27 02:50:43;;;;;;;10.27;4.97;;;6.00;97.90;;;;;;5033518;28;20105;-82
2021/03/27 02:53:46;;;;;;;8.18;5.85;;;6.00;97.80;;;;;;5027659;28;20046;-82
2021/03/27 02:56:23;;;;;;;9.20;6.07;;;6.00;97.80;;;;;;5023493;28;20049;-82
2021/03/27 02:59:11;;;;;;;7.18;5.43;;;6.00;97.90;;;;;;5049972;28;20045;-82
2021/03/27 03:01:48;;;;;;;9.07;6.63;;;6.00;97.90;;;;;;5027597;28;20038;-82
2021/03/27 03:04:27;;;;;;;9.18;6.75;;;6.00;97.90;;;;;;5035365;28;20041;-82
2021/03/27 03:07:12;;;;;;;11.73;6.57;;;6.00;97.90;;;;;;5027054;28;20077;-82
2021/03/27 03:09:51;;;;;;;9.68;6.57;;;6.00;97.80;;;;;;5021992;28;20094;-82
2021/03/27 03:12:29;;;;;;;9.63;6.10;;;5.90;97.70;;;;;;5046904;28;20057;-83
2021/03/27 03:15:19;;;;;;;8.40;5.45;;;6.00;97.70;;;;;;5033038;28;20052;-82
2021/03/27 03:18:07;;;;;;;8.10;6.70;;;5.90;97.50;;;;;;5027584;28;20064;-82
2021/03/27 03:20:51;;;;;;;8.05;5.78;;;5.90;97.60;;;;;;5042342;28;20485;-83
2021/03/27 03:23:27;;;;;;;11.02;5.93;;;5.90;97.50;;;;;;5025661;28;20097;-83
2021/03/27 03:26:03;;;;;;;9.55;6.05;;;5.90;97.50;;;;;;5037577;28;20049;-83
2021/03/27 03:28:43;;;;;;;7.55;6.03;;;6.00;97.60;;;;;;5032020;28;20041;-82
2021/03/27 03:31:19;;;;;;;8.65;5.50;;;6.00;97.50;;;;;;5033448;28;20042;-83
2021/03/27 03:34:00;;;;;;;10.70;5.80;;;6.00;97.20;;;;;;5033714;28;20436;-83
2021/03/27 03:37:03;;;;;;;9.60;5.32;;;6.00;97.10;;;;;;5033151;28;20037;-81
2021/03/27 03:39:43;;;;;;;9.32;4.50;;;6.00;96.80;;;;;;5032449;28;20156;-83
2021/03/27 03:42:39;;;;;;;10.90;5.97;;;5.90;96.80;;;;;;5029508;28;20041;-83
2021/03/27 03:45:14;;;;;;;11.63;5.70;;;5.80;96.80;;;;;;5032161;28;20401;-83
2021/03/27 03:48:08;;;;;;;12.40;5.95;;;5.70;96.70;;;;;;5030357;28;20080;-83
2021/03/27 03:50:59;;;;;;;10.95;5.07;;;5.60;96.70;;;;;;5032153;28;20042;-83
2021/03/27 03:53:32;;;;;;;9.88;5.05;;;5.60;96.80;;;;;;5032093;28;20042;-83
2021/03/27 03:56:30;;;;;;;8.52;5.22;;;5.50;96.80;;;;;;5031182;28;20049;-83
2021/03/27 03:59:22;;;;;;;9.50;4.78;;;5.50;96.80;;;;;;5029289;28;20064;-83
2021/03/27 04:02:08;;;;;;;10.00;5.53;;;5.40;96.90;;;;;;4992040;28;20105;-83
2021/03/27 04:05:10;;;;;;;14.55;4.93;;;5.40;96.90;;;;;;5048242;28;20036;-83
2021/03/27 04:07:45;;;;;;;9.52;4.20;;;5.30;96.80;;;;;;5005016;28;20367;-83
2021/03/27 04:10:21;;;;;;;11.48;4.85;;;5.30;96.80;;;;;;5024615;28;20042;-83
2021/03/27 04:13:01;;;;;;;8.77;4.60;;;5.20;96.80;;;;;;5037461;28;20090;-83
2021/03/27 04:15:52;;;;;;;7.22;3.53;;;5.10;96.80;;;;;;5020855;28;20041;-83
2021/03/27 04:18:30;;;;;;;7.82;4.40;;;5.10;96.80;;;;;;5033528;28;20058;-83
2021/03/27 04:21:05;;;;;;;9.70;4.13;;;5.00;96.80;;;;;;5018159;28;20049;-83
2021/03/27 04:23:37;;;;;;;9.13;4.05;;;4.90;96.80;;;;;;5031497;28;20037;-83
2021/03/27 04:26:27;;;;;;;10.30;4.30;;;5.00;96.90;;;;;;5039853;28;20061;-83
2021/03/27 04:29:17;;;;;;;7.63;4.00;;;4.90;96.90;;;;;;5030358;28;20076;-83
2021/03/27 04:32:08;;;;;;;9.30;4.07;;;4.90;97.20;;;;;;5048456;28;20057;-83
2021/03/27 04:34:36;;;;;;;14.55;4.50;;;4.90;97.20;;;;;;5018908;28;20070;-83
2021/03/27 04:37:22;;;;;;;8.23;3.58;;;5.00;97.20;;;;;;5035615;28;20037;-83
2021/03/27 04:40:07;;;;;;;9.77;3.63;;;5.00;97.20;;;;;;5033906;28;20041;-83
2021/03/27 04:42:47;;;;;;;9.02;2.92;;;5.10;97.00;;;;;;5034221;28;20132;-83
2021/03/27 04:45:48;;;;;;;8.07;3.70;;;5.10;97.00;;;;;;5030559;28;20061;-83
2021/03/27 04:48:20;;;;;;;11.13;3.80;;;5.10;97.00;;;;;;5038572;28;20072;-83
2021/03/27 04:51:07;;;;;;;12.88;3.20;;;5.30;97.20;;;;;;5029933;28;20072;-83
2021/03/27 04:53:40;;;;;;;8.68;3.35;;;5.20;97.20;;;;;;5032609;28;20045;-83
2021/03/27 04:56:24;;;;;;;10.65;3.70;;;5.20;97.20;;;;;;5032244;28;20619;-83
2021/03/27 04:59:04;;;;;;;8.32;3.80;;;5.30;97.20;;;;;;5050759;28;20065;-83
2021/03/27 05:02:17;;;;;;;9.57;4.00;;;5.20;97.20;;;;;;5034553;28;20053;-83
2021/03/27 05:05:06;;;;;;;13.38;6.10;;;5.20;97.10;;;;;;5032451;28;20056;-83
2021/03/27 05:07:54;;;;;;;10.10;5.80;;;5.30;97.40;;;;;;5030380;28;20034;-84
2021/03/27 05:10:32;;;;;;;11.77;6.32;;;5.40;97.50;;;;;;5031741;28;20042;-84
2021/03/27 05:13:25;;;;;;;11.52;5.90;;;5.40;97.50;;;;;;5034842;28;20524;-84
2021/03/27 05:16:00;;;;;;;11.30;5.13;;;5.30;97.30;;;;;;5031274;28;20343;-84
2021/03/27 05:18:41;;;;;;;12.15;5.72;;;5.30;97.20;;;;;;5028868;28;20041;-84
2021/03/27 05:21:28;;;;;;;10.77;5.88;;;5.20;97.20;;;;;;5028851;28;20056;-84
2021/03/27 05:24:17;;;;;;;9.70;6.05;;;5.20;97.20;;;;;;5033378;28;20107;-85
2021/03/27 05:27:25;;;;;;;12.23;7.10;;;5.20;97.40;;;;;;5020504;28;20069;-84
2021/03/27 05:29:54;;;;;;;12.43;7.63;;;5.20;97.40;;;;;;5006175;28;20049;-84
2021/03/27 05:32:41;;;;;;;13.15;7.90;;;5.10;97.60;;;;;;5023922;28;20469;-84
2021/03/27 05:35:33;;;;;;;12.70;7.90;;;5.20;97.80;;;;;;5032470;28;20034;-84
2021/03/27 05:38:25;;;;;;;13.15;6.10;;;5.20;97.80;;;;;;5024971;28;20030;-84
2021/03/27 05:41:35;;;;;;;13.98;7.13;;;5.20;97.80;;;;;;5029971;28;20064;-85
2021/03/27 05:44:37;;;;;;;15.07;7.80;;;5.20;97.40;;;;;;5022834;28;20152;-84
2021/03/27 05:47:37;;;;;;;15.02;7.53;;;5.30;97.40;;;;;;5045062;28;20042;-84
2021/03/27 05:50:36;;;;;;;9.30;5.32;;;5.30;97.20;;;;;;5026598;28;20061;-84
2021/03/27 05:53:33;;;;;;;11.90;5.93;;;5.30;97.00;;;;;;5017738;28;20042;-84
2021/03/27 05:56:34;;;;;;;10.27;5.15;;;5.30;97.30;;;;;;5033276;28;20049;-85
2021/03/27 05:59:21;;;;;;;10.52;5.13;;;5.40;97.40;;;;;;5021838;28;20060;-84
2021/03/27 06:02:06;;;;;;;7.28;5.13;;;5.40;97.50;;;;;;5024922;28;20030;-84
2021/03/27 06:05:09;;;;;;;13.30;5.20;;;5.40;97.50;;;;;;5022116;28;20049;-84
2021/03/27 06:08:17;;;;;;;7.25;3.90;;;5.40;97.40;;;;;;5026322;28;20034;-84
2021/03/27 06:10:49;;;;;;;14.10;4.68;;;5.40;97.40;;;;;;5019042;28;20128;-84
2021/03/27 06:13:36;;;;;;;13.90;4.70;;;5.40;97.30;;;;;;5019804;28;20151;-84
2021/03/27 06:16:34;;;;;;;14.40;4.65;;;5.40;97.40;;;;;;5027646;28;20458;-86
2021/03/27 06:19:34;;;;;;;10.57;4.70;;;5.40;97.50;;;;;;5024222;28;20128;-85
2021/03/27 06:22:15;;;;;;;12.57;4.82;;;5.40;97.50;;;;;;5028281;28;20071;-84
2021/03/27 06:25:18;;;;;;;11.73;4.38;;;5.40;97.70;;;;;;5044639;28;20060;-84
2021/03/27 06:27:46;;;;;;;14.27;5.03;;;5.50;97.80;;;;;;5026157;28;20165;-84
2021/03/27 06:30:39;;;;;;;13.18;4.50;;;5.60;97.80;;;;;;5024121;28;20469;-85
2021/03/27 06:33:37;;;;;;;12.00;3.88;;;5.60;97.60;;;;;;5047870;28;20092;-85
2021/03/27 06:36:03;;;;;;;14.73;4.80;;;5.70;97.60;;;;;;5024629;28;20482;-85
2021/03/27 06:39:02;;;;;;;18.65;4.53;;;5.70;97.30;;;;;;5031916;28;20035;-84
2021/03/27 06:42:07;;;;;;;13.77;3.90;;;5.70;97.10;;;;;;5022905;28;20114;-84
2021/03/27 06:45:11;;;;;;;14.60;3.72;;;5.80;97.20;;;;;;5020006;28;20113;-85
2021/03/27 06:47:45;;;;;;;15.50;3.92;;;6.00;97.40;;;;;;5022908;28;20478;-84
2021/03/27 06:50:30;;;;;;;;;;;6.40;96.90;;;;;;5019386;28;20049;-84
2021/03/27 06:53:24;;;;;;;13.50;2.30;;;6.50;95.10;;;;;;5031256;28;20424;-84
2021/03/27 06:55:59;;;;;;;12.30;3.05;;;6.60;95.90;;;;;;5021691;28;20176;-84
2021/03/27 06:58:55;;;;;;;11.55;2.45;;;6.60;95.40;;;;;;5026448;28;20042;-84
2021/03/27 07:01:59;;;;;;;12.93;2.58;;;6.60;94.30;;;;;;5037869;28;20048;-84
2021/03/27 07:04:28;;;;;;;9.55;2.10;;;6.50;93.60;;;;;;5014576;28;20049;-84
2021/03/27 07:07:30;;;;;;;12.45;2.72;;;6.50;94.00;;;;;;5030268;28;20072;-85
2021/03/27 07:10:24;;;;;;;16.13;3.65;;;6.40;93.20;;;;;;5027811;28;20091;-84
2021/03/27 07:12:53;;;;;;;13.38;2.35;;;6.40;93.00;;;;;;5028680;28;20042;-85
2021/03/27 07:15:44;;;;;;;14.95;2.67;;;6.40;93.40;;;;;;5026705;28;20416;-84
2021/03/27 07:18:35;;;;;;;12.90;2.45;;;6.30;92.50;;;;;;5027564;28;20436;-84
2021/03/27 07:21:26;;;;;;;10.68;2.40;;;6.30;93.20;;;;;;5021160;28;20042;-84
2021/03/27 07:24:02;;;;;;;16.10;3.42;;;6.40;93.00;;;;;;5026071;28;20055;-84
2021/03/27 07:26:46;;;;;;;8.23;2.55;;;6.60;93.10;;;;;;5024141;28;20029;-84
2021/03/27 07:29:36;;;;;;;13.23;2.17;;;6.70;92.90;;;;;;5027095;28;20045;-84
2021/03/27 07:32:13;;;;;;;13.43;1.75;;;7.00;91.50;;;;;;5025524;28;20033;-84
2021/03/27 07:35:06;;;;;;;11.90;2.30;;;7.10;91.40;;;;;;5014314;28;20497;-84
2021/03/27 07:37:59;;;;;;;15.82;2.30;;;7.20;90.80;;;;;;5022708;28;20116;-85
2021/03/27 07:40:30;;;;;;;14.05;2.60;;;7.20;89.30;;;;;;5025006;28;20038;-85
2021/03/27 07:43:31;;;;;;;15.95;2.10;;;7.20;89.20;;;;;;5019609;28;20068;-84
2021/03/27 07:45:57;;;;;;;12.90;2.65;;;7.40;89.00;;;;;;5029147;28;20033;-84
2021/03/27 07:48:57;;;;;;;10.90;2.45;;;7.50;89.70;;;;;;5024403;28;20612;-84
2021/03/27 07:51:32;;;;;;;16.88;3.15;;;7.50;86.40;;;;;;4999838;28;20370;-84
2021/03/27 07:54:26;;;;;;;16.38;2.97;;;7.40;87.60;;;;;;5024996;28;20175;-84
2021/03/27 07:57:22;;;;;;;14.43;2.00;;;7.40;88.90;;;;;;5007358;28;20070;-83
2021/03/27 08:00:15;;;;;;;14.55;2.90;;;7.30;84.10;;;;;;5031860;28;20116;-86
2021/03/27 08:03:03;;;;;;;14.05;2.22;;;7.30;83.90;;;;;;5021821;28;20105;-85
2021/03/27 08:05:34;;;;;;;12.73;2.20;;;7.40;85.80;;;;;;5025466;28;20042;-85
2021/03/27 08:08:26;;;;;;;13.55;2.83;;;7.40;86.30;;;;;;5026809;28;20178;-84
2021/03/27 08:11:19;;;;;;;14.52;2.47;;;7.40;80.90;;;;;;5027193;28;20060;-84
2021/03/27 08:14:23;;;;;;;18.85;3.35;;;7.40;80.70;;;;;;5018601;28;20065;-84
2021/03/27 08:17:23;;;;;;;16.40;3.00;;;7.40;80.80;;;;;;5025343;28;20457;-85
2021/03/27 08:20:08;;;;;;;14.32;3.13;;;7.50;80.40;;;;;;5020782;28;20034;-84
2021/03/27 08:23:02;;;;;;;19.15;2.78;;;7.70;80.30;;;;;;5029529;28;20032;-84
2021/03/27 08:26:17;;;;;;;13.63;2.22;;;8.10;80.40;;;;;;5034627;28;20025;-86
2021/03/27 08:29:28;;;;;;;10.65;2.10;;;8.40;79.50;;;;;;5033569;28;20117;-86
2021/03/27 08:32:20;;;;;;;13.25;2.33;;;8.80;76.70;;;;;;4987026;28;20042;-85
2021/03/27 08:34:55;;;;;;;12.00;2.10;;;9.00;75.20;;;;;;5021788;28;20045;-84
2021/03/27 08:37:45;;;;;;;9.07;2.05;;;9.10;76.00;;;;;;5038412;28;20103;-85
2021/03/27 08:40:16;;;;;;;11.30;1.70;;;9.20;74.00;;;;;;5029496;28;20040;-85
2021/03/27 08:43:23;;;;;;;13.60;3.25;;;9.40;73.20;;;;;;5031880;28;20048;-85
2021/03/27 08:46:20;;;;;;;11.93;2.38;;;9.50;71.40;;;;;;5030527;28;20064;-85
2021/03/27 08:49:14;;;;;;;15.60;2.42;;;9.80;71.30;;;;;;5034839;28;20049;-84
2021/03/27 08:51:46;;;;;;;11.82;2.40;;;9.90;66.60;;;;;;5038966;28;20072;-84
2021/03/27 08:54:46;;;;;;;8.07;1.90;;;9.70;70.00;;;;;;5024019;28;20060;-84
2021/03/27 08:57:37;;;;;;;11.82;1.92;;;9.50;68.30;;;;;;5032356;28;20383;-84
2021/03/27 09:00:37;;;;;;;12.40;1.65;;;9.70;69.30;;;;;;5024110;28;20030;-84
2021/03/27 09:03:27;;;;;;;12.82;1.95;;;9.60;67.80;;;;;;5036334;28;20064;-84
2021/03/27 09:06:11;;;;;;;11.60;2.00;;;9.10;68.90;;;;;;5030574;28;20104;-85
2021/03/27 09:08:53;;;;;;;12.13;2.00;;;8.70;69.80;;;;;;5037501;28;20042;-84
2021/03/27 09:11:52;;;;;;;11.88;1.60;;;8.60;72.10;;;;;;5049963;28;20037;-83
2021/03/27 09:14:32;;;;;;;11.52;1.65;;;8.70;71.70;;;;;;5040414;28;20045;-84
2021/03/27 09:17:20;;;;;;;5.75;1.20;;;9.00;72.20;;;;;;5039224;28;20053;-83
2021/03/27 09:19:52;;;;;;;7.30;1.73;;;9.50;69.20;;;;;;5042542;28;20030;-84
2021/03/27 09:22:39;;;;;;;9.05;1.88;;;9.80;69.20;;;;;;5033267;28;20101;-83
2021/03/27 09:25:32;;;;;;;12.20;2.28;;;10.10;68.40;;;;;;5032430;28;20054;-84
2021/03/27 09:28:30;;;;;;;9.93;1.67;;;10.50;66.70;;;;;;5044739;28;20121;-83
2021/03/27 09:31:38;;;;;;;6.05;1.20;;;10.70;63.40;;;;;;5036091;28;20046;-83
2021/03/27 09:34:32;;;;;;;6.03;1.23;;;10.20;61.60;;;;;;5033526;28;20089;-83
2021/03/27 09:37:37;;;;;;;5.25;1.10;;;9.40;65.30;;;;;;5032164;28;20049;-84
2021/03/27 09:40:13;;;;;;;6.22;0.95;;;8.70;67.30;;;;;;5030444;28;20056;-84
2021/03/27 09:43:23;;;;;;;7.47;1.38;;;8.20;72.10;;;;;;5042709;28;20042;-83
2021/03/27 09:46:02;;;;;;;6.38;1.15;;;7.90;72.90;;;;;;5036542;28;20079;-83
2021/03/27 09:48:43;;;;;;;7.57;1.83;;;7.60;76.70;;;;;;5038839;28;20044;-83
2021/03/27 09:51:15;;;;;;;9.02;1.90;;;7.60;77.90;;;;;;5057484;28;20037;-83
2021/03/27 09:54:05;;;;;;;11.55;1.95;;;7.60;79.00;;;;;;5033889;28;20453;-83
2021/03/27 09:56:34;;;;;;;12.35;2.35;;;7.60;78.60;;;;;;5030968;28;20795;-85
2021/03/27 09:59:17;;;;;;;15.02;3.03;;;7.60;78.90;;;;;;5034192;28;20048;-87
2021/03/27 10:02:10;;;;;;;8.65;2.00;;;7.60;79.50;;;;;;5035388;28;20121;-82
2021/03/27 10:04:41;;;;;;;3.95;0.80;;;7.70;79.00;;;;;;5036387;28;20046;-81
2021/03/27 10:07:19;;;;;;;6.55;1.30;;;7.60;75.60;;;;;;5030220;28;20100;-82
2021/03/27 10:10:13;;;;;;;6.28;1.08;;;7.30;72.30;;;;;;5028514;28;20120;-82
2021/03/27 10:13:04;;;;;;;12.52;2.08;;;7.20;72.80;;;;;;5029715;28;20041;-82
2021/03/27 10:15:46;;;;;;;9.02;1.65;;;7.20;79.00;;;;;;5031261;28;20049;-81
2021/03/27 10:18:46;;;;;;;10.80;1.77;;;7.40;79.80;;;;;;5027443;28;20052;-81
2021/03/27 10:21:46;;;;;;;10.65;1.60;;;7.60;77.40;;;;;;5018951;28;20042;-84
2021/03/27 10:24:19;;;;;;;11.05;2.50;;;7.50;76.60;;;;;;5024621;28;20095;-81
2021/03/27 10:27:04;;;;;;;11.48;2.28;;;7.40;78.70;;;;;;5029039;28;20059;-82
2021/03/27 10:32:43;;;;;;;17.00;2.97;;;7.30;78.50;;;;;;5028615;28;20061;-81
2021/03/27 10:35:23;;;;;;;11.23;2.45;;;7.40;79.40;;;;;;4998502;28;20100;-80
2021/03/27 10:37:57;;;;;;;8.65;2.42;;;7.60;78.70;;;;;;5026604;28;20133;-79
2021/03/27 10:40:33;;;;;;;15.65;2.65;;;7.80;80.00;;;;;;5020789;28;20034;-79
2021/03/27 10:43:26;;;;;;;11.70;2.30;;;7.90;80.30;;;;;;5022411;28;20034;-79
2021/03/27 10:46:21;;;;;;;9.05;1.58;;;7.90;79.00;;;;;;5023222;28;20100;-79
2021/03/27 10:49:21;;;;;;;11.90;2.10;;;7.90;78.20;;;;;;5018768;28;20052;-79
2021/03/27 10:51:58;;;;;;;7.22;1.88;;;8.30;78.30;;;;;;5022704;28;20061;-80
2021/03/27 10:54:34;;;;;;;4.55;1.05;;;8.80;77.60;;;;;;5018915;28;20042;-79
2021/03/27 10:57:19;;;;;;;6.90;2.00;;;9.20;75.60;;;;;;5029868;28;20501;-81
2021/03/27 11:00:12;;;;;;;11.82;1.63;;;9.50;72.90;;;;;;5024387;28;20049;-81
2021/03/27 11:03:10;;;;;;;9.05;2.13;;;9.80;71.60;;;;;;5031228;28;20045;-81
2021/03/27 11:05:58;;;;;;;9.80;2.22;;;10.20;74.10;;;;;;5020504;28;20414;-82
2021/03/27 11:09:01;;;;;;;9.88;1.92;;;10.50;68.70;;;;;;5038657;28;20061;-79
2021/03/27 11:11:54;;;;;;;10.30;2.30;;;10.70;64.90;;;;;;5033391;28;20041;-79
2021/03/27 11:14:23;;;;;;;8.27;2.33;;;10.80;64.20;;;;;;5039341;28;20076;-79
2021/03/27 11:17:27;;;;;;;10.05;2.58;;;10.90;67.00;;;;;;5043894;28;20062;-82
2021/03/27 11:20:15;;;;;;;10.75;3.17;;;11.00;60.10;;;;;;5022165;28;20421;-80
2021/03/27 11:23:02;;;;;;;11.77;2.60;;;11.10;67.40;;;;;;5027831;28;20197;-81
2021/03/27 11:25:34;;;;;;;9.27;2.67;;;11.30;65.30;;;;;;5024955;28;20061;-79
2021/03/27 11:28:34;;;;;;;10.48;1.85;;;11.50;66.10;;;;;;5028785;28;20033;-80
2021/03/27 11:31:17;;;;;;;8.55;1.77;;;11.30;63.70;;;;;;5022886;28;20466;-79
2021/03/27 11:34:04;;;;;;;8.07;1.33;;;10.80;63.40;;;;;;5028225;28;20053;-79
2021/03/27 11:37:03;;;;;;;9.15;1.50;;;10.60;61.20;;;;;;5021704;28;20067;-80
2021/03/27 11:39:41;;;;;;;10.45;1.60;;;10.70;62.90;;;;;;5036268;28;20366;-77
2021/03/27 11:42:43;;;;;;;7.75;1.48;;;10.70;62.10;;;;;;5020718;28;20666;-76
2021/03/27 11:45:26;;;;;;;8.35;1.33;;;10.20;61.40;;;;;;5030057;28;20045;-81
2021/03/27 11:48:15;;;;;;;4.55;0.52;;;9.20;69.90;;;;;;5018640;28;20442;-80
2021/03/27 11:50:53;;;;;;;3.10;0.52;;;8.30;74.20;;;;;;5019181;28;20122;-80
2021/03/27 11:53:42;;;;;;;8.75;1.30;;;7.90;79.60;;;;;;5033408;28;20053;-80
2021/03/27 11:56:26;;;;;;;7.40;1.17;;;7.80;82.10;;;;;;5024770;28;20567;-78
2021/03/27 12:02:50;;;;;;;10.40;1.83;;;7.70;86.60;;;;;;5021590;28;20612;-78
2021/03/27 12:05:32;;;;;;;4.95;0.95;;;7.40;85.70;;;;;;4980690;28;20069;-79
2021/03/27 12:08:36;;;;;;;5.70;1.05;;;6.80;87.50;;;;;;4983780;28;20047;-79
2021/03/27 12:11:08;;;;;;;4.43;0.70;;;6.20;90.40;;;;;;5003963;28;20052;-79
2021/03/27 12:13:43;;;;;;;7.13;1.17;;;6.00;91.60;;;;;;5014063;28;20060;-79
2021/03/27 12:16:24;;;;;;;4.20;0.95;;;6.00;92.80;;;;;;5023608;28;20919;-79
2021/03/27 12:19:09;;;;;;;2.25;0.70;;;6.20;93.10;;;;;;5020007;28;20046;-79
2021/03/27 12:22:11;;;;;;;4.07;0.60;;;6.40;93.20;;;;;;5025402;28;20580;-80
2021/03/27 12:25:12;;;;;;;5.60;0.70;;;6.60;92.20;;;;;;5033855;28;20037;-80
2021/03/27 12:27:43;;;;;;;5.57;1.05;;;6.70;93.20;;;;;;5033701;28;20080;-79
2021/03/27 12:30:38;;;;;;;9.82;1.58;;;6.90;93.70;;;;;;5023194;28;20478;-80
2021/03/27 12:33:09;;;;;;;6.43;1.02;;;7.10;91.20;;;;;;5019496;28;20484;-79
2021/03/27 12:35:37;;;;;;;7.00;1.48;;;7.20;92.60;;;;;;5029642;28;20104;-80
2021/03/27 12:38:13;;;;;;;7.63;1.88;;;7.40;93.10;;;;;;5028109;28;20037;-80
2021/03/27 12:40:57;;;;;;;11.18;2.22;;;7.70;93.60;;;;;;5013461;28;20050;-80
2021/03/27 12:43:26;;;;;;;10.00;1.85;;;8.20;93.20;;;;;;5030881;28;20492;-80
2021/03/27 12:46:27;;;;;;;9.50;1.75;;;8.70;92.90;;;;;;5035360;28;20497;-80
2021/03/27 12:49:22;;;;;;;9.65;1.85;;;9.10;88.90;;;;;;5019391;28;20127;-80
2021/03/27 12:52:20;;;;;;;7.90;1.83;;;9.10;84.80;;;;;;5028577;28;20037;-79
2021/03/27 12:55:20;;;;;;;9.02;1.90;;;8.90;87.10;;;;;;5001078;28;20065;-79
2021/03/27 12:58:05;;;;;;;6.28;0.88;;;8.90;87.60;;;;;;5021153;28;20062;-79
2021/03/27 13:00:43;;;;;;;7.68;1.20;;;8.70;86.60;;;;;;5014839;28;20068;-78
2021/03/27 13:03:31;;;;;;;10.82;1.63;;;8.80;84.40;;;;;;5026487;28;20077;-81
2021/03/27 13:06:33;;;;;;;13.20;2.42;;;8.90;88.20;;;;;;5021776;28;20052;-80
2021/03/27 13:09:11;;;;;;;13.35;4.40;;;9.20;85.10;;;;;;5010107;28;20084;-80
2021/03/27 13:12:10;;;;;;;9.40;1.98;;;9.50;87.80;;;;;;5026223;28;20096;-81
2021/03/27 13:15:01;;;;;;;9.82;2.03;;;9.70;85.30;;;;;;5016770;28;20057;-81
2021/03/27 13:17:55;;;;;;;8.45;1.90;;;9.60;81.60;;;;;;5032544;28;20057;-80
2021/03/27 13:20:32;;;;;;;10.02;1.65;;;9.30;78.90;;;;;;5026211;28;20049;-80
2021/03/27 13:23:11;;;;;;;12.40;2.88;;;9.20;82.30;;;;;;5033051;28;20691;-81
2021/03/27 13:26:22;;;;;;;7.30;1.45;;;9.30;79.30;;;;;;5023931;28;20080;-80
2021/03/27 13:29:08;;;;;;;10.90;2.08;;;9.40;75.00;;;;;;5024323;28;20049;-79
2021/03/27 13:31:42;;;;;;;10.73;2.55;;;9.40;77.50;;;;;;5039129;28;20497;-80
2021/03/27 13:34:18;;;;;;;14.03;2.43;;;9.20;77.00;;;;;;5039304;28;20081;-82
2021/03/27 13:36:48;;;;;;;11.90;2.25;;;9.20;75.30;;;;;;5025726;28;20036;-80
2021/03/27 13:39:34;;;;;;;9.95;2.20;;;9.00;80.30;;;;;;5029799;28;20040;-80
2021/03/27 13:42:28;;;;;;;10.65;1.70;;;9.10;77.50;;;;;;5024375;28;20136;-81
2021/03/27 13:45:25;;;;;;;9.93;1.73;;;9.00;74.80;;;;;;5035189;28;20050;-81
2021/03/27 13:48:08;;;;;;;9.45;1.40;;;8.90;76.00;;;;;;5020418;28;20450;-80
2021/03/27 13:51:01;;;;;;;7.10;1.27;;;8.90;77.00;;;;;;5025449;28;20038;-79
2021/03/27 13:53:44;;;;;;;10.23;1.75;;;9.00;73.50;;;;;;5027666;28;20029;-80
2021/03/27 13:56:32;;;;;;;8.88;2.00;;;9.00;74.70;;;;;;5027915;28;20080;-79
2021/03/27 13:59:05;;;;;;;11.50;2.17;;;9.00;75.40;;;;;;5043971;28;20065;-81
2021/03/27 14:01:36;;;;;;;12.43;2.63;;;8.80;79.50;;;;;;5028818;28;20179;-81
2021/03/27 14:04:15;;;;;;;11.05;2.22;;;8.70;81.80;;;;;;5029037;28;20041;-83
2021/03/27 14:07:03;;;;;;;13.85;2.20;;;8.90;81.70;;;;;;5026645;28;20462;-80
2021/03/27 14:09:39;;;;;;;13.48;2.58;;;9.20;78.30;;;;;;5024391;28;20108;-80
2021/03/27 14:12:32;;;;;;;10.98;2.60;;;9.60;81.10;;;;;;5020948;28;20037;-81
2021/03/27 14:15:03;;;;;;;15.98;2.75;;;9.80;74.70;;;;;;5021621;28;20042;-81
2021/03/27 14:17:47;;;;;;;11.88;1.95;;;9.90;78.50;;;;;;5023506;28;20037;-81
2021/03/27 14:20:43;;;;;;;15.27;2.45;;;10.10;76.00;;;;;;5032290;28;20152;-81
2021/03/27 14:23:31;;;;;;;10.38;1.77;;;10.20;72.50;;;;;;5025315;28;20033;-80
2021/03/27 14:26:17;;;;;;;14.27;2.35;;;10.20;74.20;;;;;;5042410;28;20058;-80
2021/03/27 14:29:00;;;;;;;13.60;2.80;;;10.20;72.00;;;;;;5023203;28;20041;-80
2021/03/27 14:32:13;;;;;;;13.93;3.05;;;10.00;69.60;;;;;;5024530;28;20063;-80
2021/03/27 14:35:05;;;;;;;13.60;2.70;;;9.60;70.00;;;;;;5013559;28;20469;-80
2021/03/27 14:37:37;;;;;;;15.73;2.58;;;9.40;74.40;;;;;;5027810;28;20058;-79